METARs

lähialueen METAR Raportit

 

EFUT - Utti, Kouvola, FINLAND
Etäisyys asemasta: KA 0,7mi, 1km
Päivitetty: 26-09-2018 12:20
Kevyttä sadetta, Melkein pilvistä
Kevyttä sadetta, Melkein pilvistä
 Tuulen suunta ELO
Tuuli: ELO 13 mph , 20 km/h, Puuskatuuli: 24 mph , 39 km/h
Lämpötila: 48°F , 9°C
Hyytävyys: 43°F , 6°C
Kastepiste: 46°F , 8°C
Kosteus: 94%
Ilmanpaine: 29.53 inHg , 1000 hPa
Yhteenveto: Kevyttä sadetta
Pilvisyys: Mostly Cloudy
Näkyvyys: 6 miles , 10 km
Pilveily: Few Clouds 2200 ft
Mostly Cloudy 4500 ft
2018/09/26 09:20 EFUT 260920Z 20011G21KT 150V240 9999 -RA FEW022 BKN045 09/08 Q1000
EFLP - Lappeenranta, FINLAND
Etäisyys asemasta: I 42mi, 67km
Päivitetty: 26-09-2018 12:20
Kevyttä sadetta, Täysin pilvistä
Kevyttä sadetta, Täysin pilvistä
 Tuulen suunta ELO
Tuuli: ELO 13 mph , 20 km/h
Lämpötila: 48°F , 9°C
Hyytävyys: 43°F , 6°C
Kastepiste: 45°F , 7°C
Kosteus: 87%
Ilmanpaine: 29.56 inHg , 1001 hPa
Yhteenveto: Kevyttä sadetta
Pilvisyys: Täysin pilvistä
Näkyvyys: 6 miles , 10 km
Pilveily: Täysin pilvistä 2700 ft
2018/09/26 09:20 EFLP 260920Z 21011KT 170V240 9999 -RA OVC027 09/07 Q1001

Metar display script from Saratoga-Weather.org

Page generated in 1.46 seconds.